Time;durP1;ratioP1;P1;durP2;ratioP2;P2;SDS_P1;SDS_P2;PMS_P1;PMS_P2;Temp;Humidity;BMP_temperature;BMP_pressure;BME280_temperature;BME280_humidity;BME280_pressure;Samples;Min_cycle;Max_cycle;Signal;HPM_P1;HPM_P2
2022/03/23 00:01:11;;;;;;;7.90;5.18;;;5.30;49.20;;;;;;4971496;28;20045;-77
2022/03/23 00:03:37;;;;;;;8.65;4.57;;;5.30;49.30;;;;;;4978788;28;20027;-77
2022/03/23 00:06:03;;;;;;;7.30;4.45;;;5.20;49.50;;;;;;4998031;28;20121;-78
2022/03/23 00:08:28;;;;;;;6.18;4.55;;;5.20;49.50;;;;;;4982863;28;20101;-78
2022/03/23 00:10:54;;;;;;;6.88;4.70;;;5.10;49.50;;;;;;5016231;28;20438;-77
2022/03/23 00:13:19;;;;;;;7.20;4.57;;;5.10;49.60;;;;;;4969952;28;20040;-78
2022/03/23 00:15:45;;;;;;;6.68;4.70;;;5.00;49.60;;;;;;4974923;28;20372;-77
2022/03/23 00:18:11;;;;;;;5.88;4.68;;;4.90;49.70;;;;;;4959524;28;20101;-78
2022/03/23 00:20:37;;;;;;;8.52;5.10;;;4.90;49.90;;;;;;4928064;28;20590;-77
2022/03/23 00:23:02;;;;;;;9.23;4.80;;;4.80;50.10;;;;;;4984395;28;20042;-78
2022/03/23 00:25:28;;;;;;;10.38;5.07;;;4.80;50.20;;;;;;4978693;28;20075;-78
2022/03/23 00:27:53;;;;;;;8.48;4.75;;;4.80;50.40;;;;;;4997435;28;20053;-78
2022/03/23 00:30:19;;;;;;;11.38;5.05;;;4.80;50.50;;;;;;4995032;28;20169;-77
2022/03/23 00:32:44;;;;;;;6.72;5.05;;;4.70;50.50;;;;;;4986821;28;20111;-77
2022/03/23 00:35:10;;;;;;;8.07;4.75;;;4.70;50.50;;;;;;4983284;28;20041;-78
2022/03/23 00:37:36;;;;;;;8.85;5.45;;;4.70;50.60;;;;;;5000670;28;20068;-78
2022/03/23 00:40:02;;;;;;;13.23;5.47;;;4.70;50.80;;;;;;4987463;28;20128;-78
2022/03/23 00:42:28;;;;;;;8.95;5.05;;;4.70;50.80;;;;;;4985048;28;20653;-77
2022/03/23 00:44:53;;;;;;;8.32;5.20;;;4.60;50.90;;;;;;4970345;28;20026;-77
2022/03/23 00:47:19;;;;;;;8.48;5.32;;;4.60;50.80;;;;;;4985493;28;20064;-78
2022/03/23 00:49:45;;;;;;;9.20;5.60;;;4.50;50.60;;;;;;4978469;28;20890;-77
2022/03/23 00:52:10;;;;;;;10.50;5.38;;;4.40;50.70;;;;;;4969630;28;20041;-78
2022/03/23 00:54:36;;;;;;;8.60;5.30;;;4.40;50.80;;;;;;4969291;28;20037;-78
2022/03/23 00:57:05;;;;;;;8.23;5.45;;;4.30;51.00;;;;;;4980747;28;20655;-77
2022/03/23 00:59:31;;;;;;;9.10;5.85;;;4.20;51.20;;;;;;4992208;28;20104;-78
2022/03/23 01:01:58;;;;;;;9.75;5.30;;;4.20;51.30;;;;;;4983088;28;20675;-78
2022/03/23 01:04:24;;;;;;;10.25;5.82;;;4.20;51.30;;;;;;4969688;28;20034;-77
2022/03/23 01:06:52;;;;;;;12.45;6.10;;;4.10;51.30;;;;;;4997250;28;20031;-77
2022/03/23 01:09:22;;;;;;;10.55;6.05;;;4.20;51.50;;;;;;4983567;28;20417;-77
2022/03/23 01:11:48;;;;;;;8.73;5.30;;;4.10;51.60;;;;;;5004734;28;20031;-77
2022/03/23 01:14:14;;;;;;;9.27;5.63;;;4.10;51.70;;;;;;4962771;28;20044;-77
2022/03/23 01:16:40;;;;;;;9.43;5.40;;;4.10;51.80;;;;;;5003107;28;20039;-76
2022/03/23 01:19:06;;;;;;;9.05;5.65;;;4.10;51.90;;;;;;4987033;28;20034;-78
2022/03/23 01:21:32;;;;;;;11.85;5.82;;;4.10;51.90;;;;;;5017310;28;20030;-76
2022/03/23 01:23:57;;;;;;;10.38;5.82;;;4.10;51.90;;;;;;4984438;28;20511;-78
2022/03/23 01:26:23;;;;;;;8.30;5.25;;;4.00;51.90;;;;;;4975384;28;20061;-77
2022/03/23 01:28:48;;;;;;;10.05;5.65;;;4.00;52.00;;;;;;5007909;28;20042;-77
2022/03/23 01:31:14;;;;;;;11.75;6.13;;;4.00;52.00;;;;;;4985251;28;20034;-77
2022/03/23 01:33:39;;;;;;;9.23;5.47;;;3.90;52.10;;;;;;5009685;28;20148;-77
2022/03/23 01:36:05;;;;;;;10.80;5.80;;;3.90;52.20;;;;;;4987936;28;20032;-78
2022/03/23 01:38:30;;;;;;;10.55;5.28;;;3.80;52.90;;;;;;5014368;28;20507;-77
2022/03/23 01:40:56;;;;;;;10.02;5.40;;;3.80;52.20;;;;;;4966311;28;20498;-78
2022/03/23 01:43:21;;;;;;;10.10;5.28;;;3.70;52.30;;;;;;4974252;28;20029;-77
2022/03/23 01:45:47;;;;;;;8.88;5.50;;;3.70;52.40;;;;;;4977512;28;20026;-78
2022/03/23 01:48:12;;;;;;;9.40;5.53;;;3.70;52.60;;;;;;4980328;28;20035;-77
2022/03/23 01:50:40;;;;;;;8.80;5.22;;;3.60;52.70;;;;;;4987768;28;20065;-77
2022/03/23 01:53:05;;;;;;;12.60;5.70;;;3.60;52.70;;;;;;4983929;28;20041;-77
2022/03/23 01:55:31;;;;;;;8.48;5.00;;;3.60;52.90;;;;;;5017065;28;20042;-77
2022/03/23 01:57:56;;;;;;;8.85;5.55;;;3.60;52.90;;;;;;4970114;28;20034;-76
2022/03/23 02:00:31;;;;;;;8.65;5.45;;;3.60;53.10;;;;;;4987498;28;20165;-75
2022/03/23 02:02:57;;;;;;;7.38;4.82;;;3.50;53.40;;;;;;4977347;28;20026;-76
2022/03/23 02:05:23;;;;;;;7.70;5.07;;;3.50;53.30;;;;;;4952378;28;20502;-76
2022/03/23 02:07:49;;;;;;;10.00;5.80;;;3.50;53.40;;;;;;4996596;28;20038;-76
2022/03/23 02:10:15;;;;;;;9.35;6.07;;;3.50;53.50;;;;;;4954651;28;20037;-76
2022/03/23 02:12:41;;;;;;;9.70;5.20;;;3.50;53.50;;;;;;4991332;28;20055;-75
2022/03/23 02:15:13;;;;;;;12.95;5.60;;;3.40;53.50;;;;;;4984808;28;20080;-77
2022/03/23 02:17:38;;;;;;;;;;;3.40;53.80;;;;;;5012807;28;20041;-77
2022/03/23 02:20:06;;;;;;;9.00;5.28;;;3.40;53.50;;;;;;4979539;28;19918;-77
2022/03/23 02:22:31;;;;;;;13.57;5.93;;;3.40;53.50;;;;;;4981336;28;20035;-76
2022/03/23 02:24:57;;;;;;;8.73;5.28;;;3.30;53.60;;;;;;4964556;28;20065;-78
2022/03/23 02:27:22;;;;;;;8.07;5.10;;;3.30;53.70;;;;;;4982485;28;20708;-77
2022/03/23 02:29:48;;;;;;;10.85;5.32;;;3.30;53.80;;;;;;4983311;28;20822;-77
2022/03/23 02:32:13;;;;;;;9.07;5.50;;;3.20;53.90;;;;;;4980354;28;20522;-77
2022/03/23 02:34:39;;;;;;;8.73;5.43;;;3.20;54.00;;;;;;4962686;28;20046;-77
2022/03/23 02:37:05;;;;;;;8.40;5.38;;;3.20;54.10;;;;;;4982128;28;20586;-75
2022/03/23 02:39:30;;;;;;;13.57;5.70;;;3.10;54.20;;;;;;5002970;28;20073;-76
2022/03/23 02:41:56;;;;;;;11.75;5.63;;;3.10;54.30;;;;;;4980465;28;20060;-77
2022/03/23 02:44:22;;;;;;;11.05;5.65;;;3.10;54.30;;;;;;4997912;28;20069;-77
2022/03/23 02:46:47;;;;;;;10.85;5.88;;;3.10;54.40;;;;;;4962436;28;20447;-77
2022/03/23 02:49:16;;;;;;;9.00;5.72;;;3.00;54.50;;;;;;4972685;28;20112;-78
2022/03/23 02:51:42;;;;;;;9.27;5.40;;;3.00;54.50;;;;;;4980039;28;20685;-77
2022/03/23 03:02:59;;;;;;;;;;;2.80;55.00;;;;;;4976932;28;20045;-76
2022/03/23 03:05:25;;;;;;;10.13;5.90;;;2.80;54.50;;;;;;5007664;28;19924;-76
2022/03/23 03:10:35;;;;;;;9.68;5.80;;;2.70;54.50;;;;;;4974223;28;20049;-76
2022/03/23 03:13:01;;;;;;;9.35;5.75;;;2.70;54.60;;;;;;4970571;28;20033;-77
2022/03/23 03:15:27;;;;;;;10.88;6.60;;;2.70;54.80;;;;;;4982639;28;20042;-77
2022/03/23 03:17:59;;;;;;;10.55;6.13;;;2.70;54.90;;;;;;4980392;28;20050;-76
2022/03/23 03:20:24;;;;;;;9.75;6.10;;;2.70;55.10;;;;;;4954843;28;20720;-76
2022/03/23 03:22:52;;;;;;;9.85;6.28;;;2.60;55.10;;;;;;4993366;28;20162;-77
2022/03/23 03:25:18;;;;;;;11.10;5.80;;;2.60;55.20;;;;;;4959283;28;20061;-77
2022/03/23 03:27:44;;;;;;;10.07;6.30;;;2.60;55.40;;;;;;4998480;28;20527;-76
2022/03/23 03:30:14;;;;;;;10.35;6.28;;;2.60;55.50;;;;;;4993726;28;20046;-77
2022/03/23 03:32:40;;;;;;;12.73;6.30;;;2.60;55.70;;;;;;5001495;28;20034;-77
2022/03/23 03:35:06;;;;;;;9.43;5.47;;;2.60;55.70;;;;;;4941997;28;20454;-78
2022/03/23 03:37:31;;;;;;;10.75;5.93;;;2.50;55.60;;;;;;4980562;28;20122;-77
2022/03/23 03:39:57;;;;;;;9.43;5.93;;;2.50;55.60;;;;;;4982745;28;20038;-76
2022/03/23 03:42:22;;;;;;;14.73;6.50;;;2.50;55.60;;;;;;4981255;28;20042;-76
2022/03/23 03:44:50;;;;;;;10.85;5.68;;;2.40;55.60;;;;;;4982166;28;20392;-75
2022/03/23 03:47:16;;;;;;;8.65;6.05;;;2.40;55.70;;;;;;4955578;28;20120;-77
2022/03/23 03:49:42;;;;;;;9.20;5.70;;;2.40;55.90;;;;;;4996830;28;20120;-76
2022/03/23 03:52:08;;;;;;;13.10;6.35;;;2.40;55.90;;;;;;4962737;28;20411;-76
2022/03/23 03:54:33;;;;;;;10.07;6.10;;;2.40;56.00;;;;;;4982927;28;20509;-76
2022/03/23 03:56:59;;;;;;;10.32;5.63;;;2.30;56.00;;;;;;4957909;28;20037;-76
2022/03/23 03:59:24;;;;;;;7.82;5.13;;;2.30;56.10;;;;;;5005551;28;20479;-76
2022/03/23 04:01:50;;;;;;;9.52;5.28;;;2.30;56.20;;;;;;4970816;28;20529;-77
2022/03/23 04:04:16;;;;;;;9.30;5.40;;;2.30;56.40;;;;;;4981026;28;20031;-76
2022/03/23 04:06:41;;;;;;;11.43;6.32;;;2.20;56.40;;;;;;4992786;28;20101;-76
2022/03/23 04:09:07;;;;;;;10.35;5.55;;;2.20;56.40;;;;;;4984558;28;20087;-75
2022/03/23 04:11:32;;;;;;;9.68;5.60;;;2.20;56.40;;;;;;4975712;28;20034;-76
2022/03/23 04:13:58;;;;;;;10.25;6.25;;;2.10;56.30;;;;;;5000466;28;20034;-76
2022/03/23 04:16:23;;;;;;;10.60;5.20;;;2.10;56.50;;;;;;4976113;28;20117;-76
2022/03/23 04:18:49;;;;;;;8.63;5.88;;;2.10;56.60;;;;;;4995656;28;20045;-76
2022/03/23 04:21:15;;;;;;;7.40;5.22;;;2.00;56.60;;;;;;4973782;28;20757;-76
2022/03/23 04:23:40;;;;;;;8.23;5.50;;;2.00;56.70;;;;;;4979989;28;20552;-76
2022/03/23 04:26:06;;;;;;;9.68;5.68;;;2.00;56.80;;;;;;4964430;28;20096;-76
2022/03/23 04:28:31;;;;;;;11.00;5.60;;;2.00;57.00;;;;;;5002020;28;20491;-76
2022/03/23 04:30:57;;;;;;;10.90;6.07;;;2.00;57.00;;;;;;4960265;28;20054;-78
2022/03/23 04:33:22;;;;;;;10.98;6.57;;;1.90;57.00;;;;;;4973045;28;20042;-75
2022/03/23 04:35:48;;;;;;;9.75;6.00;;;1.90;57.10;;;;;;5003248;28;20041;-77
2022/03/23 04:38:13;;;;;;;7.57;5.18;;;1.90;57.20;;;;;;4958994;28;20049;-76
2022/03/23 04:40:39;;;;;;;7.78;5.35;;;1.90;57.20;;;;;;4979420;28;20046;-75
2022/03/23 04:43:05;;;;;;;8.80;5.40;;;1.80;57.20;;;;;;4969883;28;20038;-76
2022/03/23 04:45:30;;;;;;;10.68;6.45;;;1.80;57.30;;;;;;4962329;28;20059;-75
2022/03/23 04:47:56;;;;;;;9.27;5.65;;;1.80;57.40;;;;;;4943040;28;20590;-77
2022/03/23 04:50:21;;;;;;;9.57;5.70;;;1.80;57.50;;;;;;4959403;28;20043;-76
2022/03/23 04:52:47;;;;;;;9.85;5.72;;;1.70;57.40;;;;;;4993983;28;20040;-76
2022/03/23 04:55:13;;;;;;;7.85;5.40;;;1.70;57.40;;;;;;4991560;28;20105;-75
2022/03/23 04:57:39;;;;;;;8.50;5.55;;;1.60;57.50;;;;;;4972156;28;20064;-75
2022/03/23 05:00:10;;;;;;;9.80;6.00;;;1.60;57.60;;;;;;4979589;28;20070;-76
2022/03/23 05:02:37;;;;;;;9.15;5.90;;;1.60;57.70;;;;;;4980192;28;20054;-75
2022/03/23 05:05:03;;;;;;;19.98;9.13;;;1.60;57.70;;;;;;4982582;28;20036;-75
2022/03/23 05:07:28;;;;;;;11.52;6.10;;;1.60;57.80;;;;;;4996846;28;20038;-76
2022/03/23 05:09:54;;;;;;;15.27;7.38;;;1.50;57.70;;;;;;4996378;28;20030;-76
2022/03/23 05:12:20;;;;;;;8.95;6.13;;;1.50;57.80;;;;;;4963562;28;20033;-76
2022/03/23 05:14:45;;;;;;;13.40;7.43;;;1.50;58.00;;;;;;5000051;28;20034;-75
2022/03/23 05:17:11;;;;;;;10.85;6.70;;;1.40;57.90;;;;;;4984258;28;20424;-76
2022/03/23 05:19:36;;;;;;;11.07;7.30;;;1.40;57.90;;;;;;4975471;28;20701;-76
2022/03/23 05:22:02;;;;;;;12.07;6.47;;;1.40;57.90;;;;;;4964743;28;20029;-76
2022/03/23 05:24:28;;;;;;;10.05;5.80;;;1.40;58.00;;;;;;4977816;28;20531;-76
2022/03/23 05:26:54;;;;;;;10.95;6.60;;;1.40;58.10;;;;;;4988073;28;20030;-76
2022/03/23 05:29:19;;;;;;;17.10;6.63;;;1.30;58.10;;;;;;4981267;28;20041;-76
2022/03/23 05:31:45;;;;;;;10.43;6.38;;;1.30;58.20;;;;;;4996558;28;20041;-75
2022/03/23 05:34:10;;;;;;;8.48;5.85;;;1.30;58.20;;;;;;4998979;28;20035;-77
2022/03/23 05:36:36;;;;;;;8.82;5.40;;;1.30;58.30;;;;;;4983253;28;20041;-78
2022/03/23 05:39:02;;;;;;;10.45;6.07;;;1.30;58.40;;;;;;4996541;28;20041;-78
2022/03/23 05:41:27;;;;;;;9.63;5.97;;;1.30;58.50;;;;;;5001048;28;20083;-77
2022/03/23 05:43:53;;;;;;;9.23;5.47;;;1.30;58.60;;;;;;4978688;28;20534;-77
2022/03/23 05:46:18;;;;;;;10.00;5.70;;;1.30;58.50;;;;;;4987797;28;20022;-78
2022/03/23 05:48:44;;;;;;;7.85;5.25;;;1.30;58.50;;;;;;5001662;28;20060;-77
2022/03/23 05:51:10;;;;;;;9.60;5.57;;;1.20;58.60;;;;;;5005480;28;20123;-78
2022/03/23 05:53:38;;;;;;;8.85;5.70;;;1.20;58.60;;;;;;4960332;28;20045;-78
2022/03/23 05:56:07;;;;;;;10.70;5.97;;;1.20;58.60;;;;;;5017409;28;20049;-77
2022/03/23 05:58:34;;;;;;;9.90;5.65;;;1.20;58.60;;;;;;5007281;28;20803;-78
2022/03/23 06:01:00;;;;;;;9.55;6.07;;;1.20;58.70;;;;;;4977308;28;20433;-78
2022/03/23 06:03:25;;;;;;;7.68;5.50;;;1.20;58.70;;;;;;4966876;28;20045;-77
2022/03/23 06:05:51;;;;;;;8.07;5.40;;;1.30;58.80;;;;;;4971859;28;20050;-78
2022/03/23 06:08:16;;;;;;;12.00;7.68;;;1.20;58.80;;;;;;4981754;28;20033;-77
2022/03/23 06:10:42;;;;;;;16.75;9.23;;;1.30;58.90;;;;;;4995257;28;20034;-78
2022/03/23 06:13:07;;;;;;;14.73;8.60;;;1.30;58.90;;;;;;4979771;28;20700;-77
2022/03/23 06:15:33;;;;;;;14.80;7.72;;;1.30;59.00;;;;;;4985621;28;20034;-77
2022/03/23 06:17:58;;;;;;;12.52;6.30;;;1.30;59.00;;;;;;4961383;28;20031;-77
2022/03/23 06:20:24;;;;;;;10.13;6.15;;;1.40;59.10;;;;;;4984949;28;20487;-77
2022/03/23 06:22:49;;;;;;;8.48;5.65;;;1.40;59.00;;;;;;4996497;28;20042;-77
2022/03/23 06:25:15;;;;;;;11.38;6.15;;;1.40;59.10;;;;;;4980150;28;20088;-77
2022/03/23 06:27:40;;;;;;;10.60;6.60;;;1.40;59.10;;;;;;5003082;28;20033;-77
2022/03/23 06:30:06;;;;;;;17.83;9.63;;;1.50;59.20;;;;;;5009769;28;20039;-78
2022/03/23 06:32:33;;;;;;;31.85;14.68;;;1.50;59.30;;;;;;4982130;28;20039;-78
2022/03/23 06:35:00;;;;;;;33.72;12.30;;;1.60;59.30;;;;;;4959337;28;20084;-77
2022/03/23 06:37:26;;;;;;;23.05;11.27;;;1.70;59.30;;;;;;4980933;28;20045;-77
2022/03/23 06:39:52;;;;;;;17.65;11.07;;;1.70;59.30;;;;;;4997845;28;20077;-77
2022/03/23 06:42:17;;;;;;;17.05;9.07;;;1.80;59.40;;;;;;4987293;28;20128;-79
2022/03/23 06:44:43;;;;;;;15.88;8.48;;;1.80;59.40;;;;;;4972932;28;20036;-77
2022/03/23 06:47:09;;;;;;;18.05;7.90;;;1.90;59.50;;;;;;4983303;28;20042;-78
2022/03/23 06:49:34;;;;;;;12.65;7.90;;;1.90;59.40;;;;;;4968824;28;20037;-78
2022/03/23 06:52:00;;;;;;;14.98;8.43;;;2.00;59.50;;;;;;4968382;28;20037;-78
2022/03/23 06:54:25;;;;;;;16.17;8.50;;;2.10;59.60;;;;;;4977608;28;20506;-78
2022/03/23 06:56:51;;;;;;;18.90;8.52;;;2.10;59.60;;;;;;4985821;28;20470;-77
2022/03/23 06:59:18;;;;;;;14.75;8.30;;;2.20;59.60;;;;;;5004212;28;20033;-77
2022/03/23 07:01:44;;;;;;;15.30;8.80;;;2.30;59.70;;;;;;4976513;28;20609;-78
2022/03/23 07:04:09;;;;;;;17.38;9.35;;;2.40;59.70;;;;;;4988993;28;20038;-78
2022/03/23 07:06:35;;;;;;;16.50;8.00;;;2.50;59.70;;;;;;4992411;28;20039;-78
2022/03/23 07:11:45;;;;;;;12.35;7.28;;;2.70;59.80;;;;;;4979944;28;20061;-78
2022/03/23 07:14:10;;;;;;;15.18;8.13;;;2.90;59.70;;;;;;4995530;28;20038;-78
2022/03/23 07:16:36;;;;;;;13.40;7.15;;;3.00;59.70;;;;;;4975127;28;20041;-78
2022/03/23 07:19:01;;;;;;;12.55;6.85;;;3.10;59.70;;;;;;4971060;28;20033;-78
2022/03/23 07:21:27;;;;;;;16.05;7.13;;;3.20;59.70;;;;;;4979149;28;20097;-78
2022/03/23 07:23:53;;;;;;;10.93;7.05;;;3.40;59.70;;;;;;4980701;28;20081;-78
2022/03/23 07:26:19;;;;;;;11.32;6.88;;;3.60;59.60;;;;;;4978555;28;20109;-78
2022/03/23 07:28:45;;;;;;;14.13;7.60;;;3.70;59.60;;;;;;4966192;28;20064;-78
2022/03/23 07:31:10;;;;;;;11.25;7.05;;;3.90;59.50;;;;;;4977865;28;20129;-78
2022/03/23 07:33:36;;;;;;;14.13;7.25;;;4.00;59.40;;;;;;4979283;28;20137;-78
2022/03/23 07:36:02;;;;;;;11.30;6.90;;;4.20;59.30;;;;;;4988254;28;20057;-78
2022/03/23 07:38:28;;;;;;;16.23;7.38;;;4.30;59.30;;;;;;4982853;28;20042;-79
2022/03/23 07:40:53;;;;;;;14.32;7.25;;;4.50;59.20;;;;;;4992357;28;20403;-78
2022/03/23 07:43:19;;;;;;;16.17;7.25;;;4.70;59.10;;;;;;4986188;28;20049;-77
2022/03/23 07:45:44;;;;;;;13.10;7.57;;;4.90;59.00;;;;;;4964555;28;20056;-77
2022/03/23 07:48:10;;;;;;;11.15;6.72;;;5.10;58.90;;;;;;4978216;28;20055;-77
2022/03/23 07:50:35;;;;;;;12.75;6.88;;;5.20;58.70;;;;;;4983936;28;20113;-77
2022/03/23 07:53:01;;;;;;;12.18;7.22;;;5.40;58.60;;;;;;4967246;28;20030;-77
2022/03/23 07:55:26;;;;;;;13.52;7.57;;;5.60;58.50;;;;;;4984116;28;20034;-78
2022/03/23 07:57:52;;;;;;;17.10;6.95;;;5.80;58.30;;;;;;5003805;28;20116;-78
2022/03/23 08:00:17;;;;;;;15.82;6.45;;;5.90;58.20;;;;;;4962437;28;20072;-78
2022/03/23 08:02:44;;;;;;;12.02;6.85;;;6.10;58.00;;;;;;4983485;28;20065;-78
2022/03/23 08:05:09;;;;;;;13.05;7.38;;;6.30;57.80;;;;;;4961822;28;20161;-77
2022/03/23 08:07:35;;;;;;;14.43;7.20;;;6.50;57.60;;;;;;4985865;28;20582;-77
2022/03/23 08:10:01;;;;;;;11.50;6.35;;;6.70;57.50;;;;;;4964706;28;20045;-77
2022/03/23 08:12:26;;;;;;;12.38;6.50;;;6.90;57.30;;;;;;5003644;28;20038;-77
2022/03/23 08:14:52;;;;;;;11.45;6.93;;;7.10;57.10;;;;;;4982725;28;20041;-77
2022/03/23 08:17:17;;;;;;;15.05;7.22;;;7.30;56.90;;;;;;4979556;28;20122;-78
2022/03/23 08:19:43;;;;;;;12.27;6.60;;;7.50;56.60;;;;;;4994293;28;20045;-77
2022/03/23 08:22:09;;;;;;;12.85;6.82;;;7.70;56.40;;;;;;4993470;28;20085;-77
2022/03/23 08:24:34;;;;;;;13.85;6.88;;;7.90;56.20;;;;;;5021067;28;20017;-77
2022/03/23 08:27:00;;;;;;;11.45;6.50;;;8.20;55.90;;;;;;4951445;28;20057;-78
2022/03/23 08:29:26;;;;;;;11.38;6.97;;;8.40;55.80;;;;;;4987456;28;20029;-77
2022/03/23 08:31:52;;;;;;;10.30;5.65;;;8.60;55.60;;;;;;4935792;28;20575;-77
2022/03/23 08:34:18;;;;;;;9.63;6.50;;;8.80;55.40;;;;;;4975885;28;20045;-77
2022/03/23 08:36:43;;;;;;;10.93;6.72;;;9.00;55.10;;;;;;4964804;28;20054;-77
2022/03/23 08:39:09;;;;;;;9.32;6.10;;;9.20;54.80;;;;;;4965963;28;20073;-78
2022/03/23 08:41:35;;;;;;;8.80;5.65;;;9.40;54.60;;;;;;4988648;28;20137;-79
2022/03/23 08:44:00;;;;;;;9.15;6.43;;;9.60;54.30;;;;;;4992932;28;20037;-77
2022/03/23 08:46:27;;;;;;;7.20;5.78;;;9.90;54.20;;;;;;4963677;28;20057;-77
2022/03/23 08:48:53;;;;;;;9.73;6.88;;;10.10;53.90;;;;;;4983334;28;20546;-77
2022/03/23 08:51:19;;;;;;;9.48;6.50;;;10.40;53.60;;;;;;4976189;28;20081;-77
2022/03/23 08:53:45;;;;;;;8.07;5.68;;;10.60;53.40;;;;;;4989196;28;20042;-77
2022/03/23 08:56:13;;;;;;;12.40;6.65;;;10.80;53.10;;;;;;4966111;28;20038;-79
2022/03/23 08:58:39;;;;;;;9.52;6.13;;;11.10;52.80;;;;;;4973569;28;20057;-77
2022/03/23 09:01:05;;;;;;;10.23;6.53;;;11.30;52.50;;;;;;4979468;28;20074;-78
2022/03/23 09:03:31;;;;;;;12.95;6.85;;;11.50;52.30;;;;;;4995424;28;20515;-77
2022/03/23 09:05:58;;;;;;;9.15;5.78;;;11.80;52.00;;;;;;4956940;28;20036;-77
2022/03/23 09:08:24;;;;;;;10.38;7.00;;;12.00;51.70;;;;;;4990187;28;20031;-77
2022/03/23 09:10:49;;;;;;;11.57;6.50;;;12.20;51.30;;;;;;5010992;28;20541;-77
2022/03/23 09:13:15;;;;;;;9.32;6.82;;;12.40;51.10;;;;;;4984289;28;20397;-77
2022/03/23 09:15:40;;;;;;;11.25;6.10;;;12.70;50.90;;;;;;4967751;28;20046;-77
2022/03/23 09:18:07;;;;;;;7.45;6.13;;;12.80;50.50;;;;;;4987377;28;20040;-78
2022/03/23 09:20:33;;;;;;;9.70;6.03;;;13.10;50.30;;;;;;4992713;28;20723;-78
2022/03/23 09:22:59;;;;;;;8.75;6.13;;;13.30;49.90;;;;;;4968049;28;20034;-78
2022/03/23 09:25:24;;;;;;;8.70;6.18;;;13.50;49.60;;;;;;4966733;28;20870;-78
2022/03/23 09:27:50;;;;;;;9.63;6.32;;;13.70;49.30;;;;;;4955943;28;20037;-77
2022/03/23 09:30:16;;;;;;;9.45;6.57;;;13.90;49.00;;;;;;4975326;28;20038;-78
2022/03/23 09:32:46;;;;;;;9.75;6.35;;;14.10;48.70;;;;;;5005253;28;20042;-78
2022/03/23 09:35:12;;;;;;;9.95;6.65;;;14.40;48.30;;;;;;4976350;28;22100;-76
2022/03/23 09:37:50;;;;;;;9.90;6.88;;;14.50;48.10;;;;;;4979091;28;20041;-76
2022/03/23 09:40:23;;;;;;;10.40;6.93;;;14.80;47.90;;;;;;4981687;28;20034;-76
2022/03/23 09:42:48;;;;;;;13.82;7.10;;;15.00;47.60;;;;;;4997768;28;20053;-76
2022/03/23 09:47:58;;;;;;;12.00;7.28;;;15.60;47.00;;;;;;5008933;28;20100;-75
2022/03/23 09:50:28;;;;;;;10.07;7.28;;;15.80;46.40;;;;;;4993176;28;20037;-77
2022/03/23 09:52:53;;;;;;;10.15;7.68;;;16.00;46.20;;;;;;4960224;28;20042;-77
2022/03/23 09:55:19;;;;;;;12.00;7.18;;;16.20;45.90;;;;;;4984967;28;20030;-76
2022/03/23 09:57:45;;;;;;;11.30;6.72;;;16.50;45.60;;;;;;4996234;28;20117;-75
2022/03/23 10:00:12;;;;;;;11.45;7.97;;;16.70;45.20;;;;;;4985773;28;20049;-77
2022/03/23 10:02:40;;;;;;;11.77;7.70;;;16.80;44.70;;;;;;4980649;28;20874;-76
2022/03/23 10:05:34;;;;;;;12.40;7.10;;;17.10;44.40;;;;;;4986273;28;20536;-77
2022/03/23 10:08:27;;;;;;;10.18;6.50;;;17.40;43.60;;;;;;4977364;28;20138;-77
2022/03/23 10:11:31;;;;;;;10.63;7.07;;;17.60;43.30;;;;;;4986035;28;20033;-79
2022/03/23 10:14:34;;;;;;;10.13;7.32;;;17.90;42.70;;;;;;4980349;28;20066;-78
2022/03/23 10:17:31;;;;;;;11.73;7.70;;;18.20;42.10;;;;;;4985199;28;21533;-78
2022/03/23 10:19:56;;;;;;;13.98;7.68;;;18.50;41.90;;;;;;4975640;28;20034;-78
2022/03/23 10:22:26;;;;;;;8.65;6.57;;;18.70;42.10;;;;;;4966129;28;20038;-78
2022/03/23 10:24:51;;;;;;;9.07;7.20;;;18.90;41.50;;;;;;4995958;28;20042;-78
2022/03/23 10:27:17;;;;;;;10.43;7.47;;;19.10;41.20;;;;;;4967467;28;20055;-78
2022/03/23 10:29:48;;;;;;;9.65;7.60;;;19.30;40.70;;;;;;4993801;28;20042;-79
2022/03/23 10:32:14;;;;;;;9.40;6.78;;;19.50;39.90;;;;;;4982768;28;20113;-79
2022/03/23 10:34:50;;;;;;;11.95;8.05;;;19.60;39.70;;;;;;4993843;28;20109;-79
2022/03/23 10:37:23;;;;;;;9.45;7.22;;;19.80;39.10;;;;;;4981372;28;20034;-79
2022/03/23 10:39:49;;;;;;;8.75;6.88;;;20.00;38.80;;;;;;5013184;28;20072;-79
2022/03/23 10:42:19;;;;;;;11.07;7.70;;;20.20;38.80;;;;;;4984545;28;20565;-79
2022/03/23 10:44:45;;;;;;;9.52;7.28;;;20.40;38.40;;;;;;4994540;28;20033;-79
2022/03/23 10:47:28;;;;;;;9.80;7.47;;;20.60;37.90;;;;;;4983594;28;20446;-79
2022/03/23 10:49:54;;;;;;;9.65;6.75;;;20.80;36.90;;;;;;4958875;28;20026;-79
2022/03/23 10:52:19;;;;;;;8.25;7.07;;;21.10;37.40;;;;;;5018518;28;20106;-80
2022/03/23 10:55:05;;;;;;;8.63;7.10;;;21.30;37.00;;;;;;4984970;28;20696;-78
2022/03/23 10:57:58;;;;;;;11.32;7.40;;;21.50;36.10;;;;;;4952743;28;20507;-80
2022/03/23 11:00:38;;;;;;;9.02;6.90;;;21.70;35.00;;;;;;4991898;28;20522;-79
2022/03/23 11:03:05;;;;;;;9.65;6.18;;;22.00;36.10;;;;;;4987244;28;20042;-79
2022/03/23 11:05:43;;;;;;;10.52;7.28;;;22.20;35.50;;;;;;4985795;28;20033;-78
2022/03/23 11:08:24;;;;;;;11.27;7.00;;;22.40;34.10;;;;;;4989760;28;20169;-79
2022/03/23 11:16:33;;;;;;;14.15;7.07;;;22.90;33.60;;;;;;4977251;28;20072;-79
2022/03/23 11:19:11;;;;;;;11.68;6.70;;;23.00;33.00;;;;;;4966018;28;20110;-78
2022/03/23 11:21:58;;;;;;;9.98;7.63;;;23.10;32.00;;;;;;5012221;28;20045;-78
2022/03/23 11:24:27;;;;;;;11.68;7.72;;;23.30;31.50;;;;;;4964757;28;20031;-79
2022/03/23 11:26:53;;;;;;;13.20;7.55;;;23.50;32.40;;;;;;4962678;28;20062;-78
2022/03/23 11:29:19;;;;;;;14.77;8.57;;;23.70;32.00;;;;;;4964836;28;20127;-79
2022/03/23 11:31:45;;;;;;;14.88;8.40;;;23.90;31.70;;;;;;4964564;28;20034;-79
2022/03/23 11:34:13;;;;;;;11.43;8.07;;;24.10;31.50;;;;;;4971461;28;20120;-79
2022/03/23 11:36:39;;;;;;;18.27;8.95;;;24.30;31.40;;;;;;5002494;28;20041;-78
2022/03/23 11:39:05;;;;;;;11.38;7.60;;;24.40;31.00;;;;;;4985170;28;20117;-80
2022/03/23 11:41:32;;;;;;;11.23;7.97;;;24.50;30.70;;;;;;4974253;28;20125;-79
2022/03/23 11:43:58;;;;;;;9.00;7.43;;;24.70;30.50;;;;;;4980362;28;20038;-79
2022/03/23 11:46:23;;;;;;;9.85;7.38;;;24.80;30.10;;;;;;4979580;28;20517;-79
2022/03/23 11:49:09;;;;;;;7.90;5.93;;;24.90;30.00;;;;;;5015659;28;20563;-79
2022/03/23 11:51:53;;;;;;;9.60;5.93;;;25.00;29.40;;;;;;4961582;28;20684;-79
2022/03/23 11:54:28;;;;;;;6.55;5.63;;;25.20;28.80;;;;;;4997573;28;20069;-79
2022/03/23 11:56:58;;;;;;;8.68;6.97;;;25.30;29.50;;;;;;4980656;28;20034;-79
2022/03/23 11:59:28;;;;;;;7.78;6.68;;;25.50;29.40;;;;;;4967331;28;20648;-79
2022/03/23 12:01:54;;;;;;;7.65;5.88;;;25.60;29.00;;;;;;4969249;28;20037;-80
2022/03/23 12:04:21;;;;;;;7.45;5.43;;;25.80;28.80;;;;;;4966826;28;20117;-80
2022/03/23 12:06:55;;;;;;;8.60;6.05;;;25.90;28.50;;;;;;4979676;28;20055;-79
2022/03/23 12:09:34;;;;;;;7.60;5.35;;;26.10;28.20;;;;;;4959074;28;20100;-79
2022/03/23 12:12:02;;;;;;;7.97;4.93;;;26.20;27.00;;;;;;4977783;28;20104;-79
2022/03/23 12:14:34;;;;;;;6.30;5.07;;;26.30;27.60;;;;;;4966039;28;20061;-80
2022/03/23 12:17:04;;;;;;;4.20;3.80;;;26.50;27.30;;;;;;4971706;28;20145;-79
2022/03/23 12:19:52;;;;;;;5.78;4.47;;;26.70;27.30;;;;;;4943360;28;20036;-79
2022/03/23 12:22:32;;;;;;;7.95;5.30;;;26.80;27.00;;;;;;4973404;28;20136;-79
2022/03/23 12:25:23;;;;;;;5.75;4.38;;;26.90;26.90;;;;;;4975327;28;20069;-79
2022/03/23 12:28:04;;;;;;;8.48;5.38;;;27.00;26.70;;;;;;4990137;28;20045;-78
2022/03/23 12:30:30;;;;;;;5.03;4.40;;;27.20;26.30;;;;;;4979923;28;20039;-79
2022/03/23 12:32:57;;;;;;;4.40;4.00;;;27.30;26.60;;;;;;4985380;28;20373;-79
2022/03/23 12:35:29;;;;;;;4.30;3.88;;;27.50;26.50;;;;;;4975313;28;20042;-79
2022/03/23 12:37:55;;;;;;;4.82;4.32;;;27.50;26.30;;;;;;4979228;28;20069;-79
2022/03/23 12:40:20;;;;;;;6.75;4.70;;;27.60;26.50;;;;;;4964712;28;20030;-79
2022/03/23 12:42:46;;;;;;;6.07;5.45;;;27.70;26.40;;;;;;5016889;28;20554;-78
2022/03/23 12:45:18;;;;;;;8.45;4.88;;;27.80;26.00;;;;;;4964633;28;20522;-79
2022/03/23 12:47:57;;;;;;;6.22;4.25;;;27.70;25.60;;;;;;4985318;28;20060;-80
2022/03/23 12:59:14;;;;;;;5.65;3.75;;;28.00;25.20;;;;;;4977038;28;20570;-78
2022/03/23 13:01:40;;;;;;;4.53;3.78;;;28.20;24.20;;;;;;4996976;28;20030;-79
2022/03/23 13:04:05;;;;;;;4.53;3.17;;;28.20;24.90;;;;;;4955741;28;20035;-79
2022/03/23 13:06:32;;;;;;;3.90;3.50;;;28.30;24.50;;;;;;4952913;28;20042;-79
2022/03/23 13:08:58;;;;;;;5.00;3.53;;;28.30;24.70;;;;;;4967248;28;20100;-78
2022/03/23 13:11:25;;;;;;;5.07;3.67;;;28.30;23.80;;;;;;4971247;28;20041;-79
2022/03/23 13:13:52;;;;;;;4.03;3.63;;;28.20;23.60;;;;;;4961689;28;20480;-79
2022/03/23 13:16:50;;;;;;;4.35;3.53;;;28.10;23.60;;;;;;5015770;28;20918;-79
2022/03/23 13:19:16;;;;;;;3.67;3.25;;;28.00;23.10;;;;;;4974913;28;20051;-79
2022/03/23 13:21:42;;;;;;;5.47;3.60;;;28.10;23.60;;;;;;4980153;28;20569;-79